createdAt,value
2018-09-30T00:02:25.886Z,4.90
2018-09-30T00:04:53.861Z,9.60
2018-09-30T00:07:21.838Z,8.03
2018-09-30T00:09:49.814Z,3.40
2018-09-30T00:12:17.798Z,4.93
2018-09-30T00:14:45.763Z,6.33
2018-09-30T00:17:13.755Z,6.00
2018-09-30T00:19:41.742Z,6.43
2018-09-30T00:22:09.712Z,3.40
2018-09-30T00:24:43.273Z,5.37
2018-09-30T00:27:16.742Z,5.07
2018-09-30T00:29:44.714Z,2.83
2018-09-30T00:32:12.702Z,2.73
2018-09-30T00:34:40.678Z,5.00
2018-09-30T00:37:08.670Z,7.65
2018-09-30T00:39:36.657Z,7.20
2018-09-30T00:42:04.646Z,4.57
2018-09-30T00:44:32.645Z,8.15
2018-09-30T00:47:00.635Z,5.50
2018-09-30T00:49:28.605Z,9.87
2018-09-30T00:51:56.582Z,2.23
2018-09-30T00:54:24.565Z,3.10
2018-09-30T00:56:52.553Z,3.47
2018-09-30T00:59:20.574Z,8.53
2018-09-30T01:01:48.518Z,3.70
2018-09-30T01:04:16.530Z,4.42
2018-09-30T01:06:44.526Z,3.27
2018-09-30T01:09:14.649Z,3.43
2018-09-30T01:11:43.338Z,8.05
2018-09-30T01:14:11.324Z,5.43
2018-09-30T01:16:39.337Z,5.50
2018-09-30T01:19:07.327Z,6.17
2018-09-30T01:21:35.617Z,6.13
2018-09-30T01:24:03.654Z,3.05
2018-09-30T01:26:31.629Z,3.08
2018-09-30T01:28:59.754Z,6.58
2018-09-30T01:31:27.764Z,10.55
2018-09-30T01:33:56.081Z,3.07
2018-09-30T01:36:24.090Z,4.17
2018-09-30T01:38:52.082Z,4.10
2018-09-30T01:41:20.110Z,6.00
2018-09-30T01:43:48.069Z,6.85
2018-09-30T01:46:16.034Z,9.88
2018-09-30T01:48:44.001Z,4.08
2018-09-30T01:51:11.969Z,6.03
2018-09-30T01:53:39.946Z,2.45
2018-09-30T01:56:07.924Z,6.00
2018-09-30T01:58:35.902Z,6.80
2018-09-30T02:01:03.867Z,7.15
2018-09-30T02:03:31.833Z,5.33
2018-09-30T02:05:59.810Z,3.95
2018-09-30T02:08:27.781Z,7.90
2018-09-30T02:10:55.767Z,8.53
2018-09-30T02:13:23.738Z,12.28
2018-09-30T02:15:51.704Z,3.00
2018-09-30T02:18:19.687Z,5.78
2018-09-30T02:20:47.657Z,4.45
2018-09-30T02:23:15.641Z,8.28
2018-09-30T02:25:43.601Z,4.55
2018-09-30T02:28:11.595Z,2.87
2018-09-30T02:30:39.582Z,4.37
2018-09-30T02:33:07.559Z,5.87
2018-09-30T02:35:35.538Z,11.15
2018-09-30T02:38:03.512Z,6.90
2018-09-30T02:40:31.570Z,3.00
2018-09-30T02:42:59.561Z,3.22
2018-09-30T02:45:27.617Z,3.40
2018-09-30T02:47:55.610Z,2.08
2018-09-30T02:50:23.603Z,5.37
2018-09-30T02:52:51.582Z,7.95
2018-09-30T02:55:19.578Z,7.67
2018-09-30T02:57:47.563Z,2.30
2018-09-30T03:00:15.555Z,3.00
2018-09-30T03:02:43.530Z,3.00
2018-09-30T03:05:11.517Z,5.28
2018-09-30T03:07:44.961Z,6.90
2018-09-30T03:10:12.950Z,4.53
2018-09-30T03:12:40.942Z,3.30
2018-09-30T03:15:08.930Z,3.80
2018-09-30T03:17:36.913Z,6.47
2018-09-30T03:20:04.889Z,2.75
2018-09-30T03:22:32.882Z,7.15
2018-09-30T03:25:00.863Z,12.00
2018-09-30T03:27:28.842Z,6.17
2018-09-30T03:29:56.829Z,4.35
2018-09-30T03:32:24.810Z,10.70
2018-09-30T03:34:52.789Z,2.33
2018-09-30T03:37:20.778Z,5.00
2018-09-30T03:39:48.779Z,2.60
2018-09-30T03:42:16.766Z,2.08
2018-09-30T03:44:44.767Z,3.65
2018-09-30T03:47:12.752Z,5.20
2018-09-30T03:49:40.746Z,5.12
2018-09-30T03:52:08.735Z,4.58
2018-09-30T03:54:36.737Z,4.78
2018-09-30T03:57:04.717Z,2.87
2018-09-30T03:59:32.713Z,5.28
2018-09-30T04:02:00.698Z,3.20
2018-09-30T04:04:28.681Z,4.30
2018-09-30T04:06:56.668Z,5.22
2018-09-30T04:09:24.733Z,2.42
2018-09-30T04:11:52.651Z,5.10
2018-09-30T04:14:20.652Z,3.70
2018-09-30T04:16:48.678Z,5.10
2018-09-30T04:19:16.634Z,3.72
2018-09-30T04:21:44.618Z,6.97
2018-09-30T04:24:12.595Z,5.10
2018-09-30T04:26:41.595Z,12.88
2018-09-30T04:29:09.710Z,4.03
2018-09-30T04:31:37.696Z,2.95
2018-09-30T04:34:05.882Z,3.33
2018-09-30T04:36:34.708Z,4.15
2018-09-30T04:39:03.502Z,4.90
2018-09-30T04:41:31.482Z,9.25
2018-09-30T04:43:59.551Z,3.77
2018-09-30T04:46:27.802Z,4.00
2018-09-30T04:48:55.788Z,2.75
2018-09-30T04:51:23.806Z,4.75
2018-09-30T04:53:51.782Z,3.10
2018-09-30T04:56:19.787Z,3.27
2018-09-30T04:58:47.776Z,4.35
2018-09-30T05:01:15.759Z,3.37
2018-09-30T05:03:43.739Z,5.90
2018-09-30T05:06:11.726Z,2.77
2018-09-30T05:08:39.752Z,5.10
2018-09-30T05:11:07.891Z,5.00
2018-09-30T05:13:35.895Z,2.92
2018-09-30T05:16:03.972Z,7.67
2018-09-30T05:18:31.978Z,3.35
2018-09-30T05:20:59.993Z,4.22
2018-09-30T05:23:27.999Z,5.95
2018-09-30T05:25:55.985Z,3.15
2018-09-30T05:28:23.962Z,5.45
2018-09-30T05:30:51.962Z,5.35
2018-09-30T05:33:19.950Z,5.87
2018-09-30T05:35:48.179Z,5.03
2018-09-30T05:38:16.149Z,5.72
2018-09-30T05:40:44.145Z,9.90
2018-09-30T05:43:12.126Z,3.33
2018-09-30T05:45:40.188Z,3.95
2018-09-30T05:48:08.165Z,6.47
2018-09-30T05:50:36.175Z,8.25
2018-09-30T05:53:04.159Z,4.95
2018-09-30T05:55:32.142Z,9.43
2018-09-30T05:58:00.138Z,7.33
2018-09-30T06:00:28.095Z,8.95
2018-09-30T06:02:56.090Z,9.10
2018-09-30T06:05:24.070Z,4.97
2018-09-30T06:07:52.053Z,7.55
2018-09-30T06:10:20.041Z,3.05
2018-09-30T06:12:48.034Z,5.10
2018-09-30T06:15:16.022Z,6.45
2018-09-30T06:17:44.007Z,5.35
2018-09-30T06:20:11.998Z,3.47
2018-09-30T06:22:39.990Z,5.30
2018-09-30T06:25:07.967Z,2.63
2018-09-30T06:27:35.957Z,4.47
2018-09-30T06:30:03.929Z,5.03
2018-09-30T06:32:31.910Z,5.23
2018-09-30T06:34:59.883Z,5.23
2018-09-30T06:37:27.872Z,6.40
2018-09-30T06:39:55.863Z,7.77
2018-09-30T06:42:23.849Z,9.77
2018-09-30T06:44:51.852Z,8.30
2018-09-30T06:47:19.908Z,8.80
2018-09-30T06:49:55.356Z,7.47
2018-09-30T06:52:23.384Z,6.70
2018-09-30T06:54:51.376Z,5.73
2018-09-30T06:57:19.427Z,5.87
2018-09-30T06:59:47.546Z,5.97
2018-09-30T07:02:16.016Z,7.17
2018-09-30T07:04:44.022Z,6.50
2018-09-30T07:07:12.096Z,8.03
2018-09-30T07:09:40.104Z,7.33
2018-09-30T07:12:08.111Z,12.03
2018-09-30T07:14:36.112Z,5.83
2018-09-30T07:17:04.176Z,11.47
2018-09-30T07:19:32.194Z,6.27
2018-09-30T07:22:00.262Z,13.07
2018-09-30T07:24:28.260Z,10.90
2018-09-30T07:26:56.288Z,8.50
2018-09-30T07:29:24.322Z,9.67
2018-09-30T07:31:52.481Z,14.40
2018-09-30T07:34:20.601Z,6.70
2018-09-30T07:36:48.699Z,10.40
2018-09-30T07:39:16.857Z,7.40
2018-09-30T07:41:46.876Z,9.57
2018-09-30T07:44:15.136Z,7.37
2018-09-30T07:46:44.500Z,10.37
2018-09-30T07:49:12.640Z,9.13
2018-09-30T07:51:40.930Z,11.37
2018-09-30T07:54:08.975Z,8.07
2018-09-30T07:56:38.035Z,11.37
2018-09-30T07:59:06.082Z,17.10
2018-09-30T08:01:34.167Z,18.57
2018-09-30T08:04:02.131Z,9.60
2018-09-30T08:06:30.210Z,12.27
2018-09-30T08:09:03.231Z,12.67
2018-09-30T08:11:31.824Z,11.50
2018-09-30T08:13:59.834Z,16.07
2018-09-30T08:16:27.928Z,14.43
2018-09-30T08:18:55.933Z,20.03
2018-09-30T08:21:23.934Z,10.80
2018-09-30T08:23:51.958Z,15.10
2018-09-30T08:26:19.959Z,15.97
2018-09-30T08:28:47.977Z,25.13
2018-09-30T08:31:15.982Z,16.07
2018-09-30T08:33:44.238Z,27.37
2018-09-30T08:36:12.528Z,13.73
2018-09-30T08:38:41.777Z,11.53
2018-09-30T08:41:11.117Z,20.60
2018-09-30T08:43:40.337Z,13.80
2018-09-30T08:46:08.676Z,15.50
2018-09-30T08:48:36.773Z,19.73
2018-09-30T08:51:04.786Z,14.63
2018-09-30T08:53:32.778Z,14.50
2018-09-30T08:56:00.844Z,12.60
2018-09-30T08:58:29.434Z,18.10
2018-09-30T09:00:57.447Z,16.60
2018-09-30T09:03:25.926Z,14.10
2018-09-30T09:05:53.952Z,14.50
2018-09-30T09:08:21.971Z,19.90
2018-09-30T09:10:49.974Z,20.23
2018-09-30T09:13:17.963Z,14.73
2018-09-30T09:15:45.962Z,18.27
2018-09-30T09:18:14.336Z,12.33
2018-09-30T09:20:42.364Z,18.53
2018-09-30T09:23:10.387Z,18.27
2018-09-30T09:25:38.921Z,16.57
2018-09-30T09:28:06.997Z,16.83
2018-09-30T09:30:35.044Z,13.53
2018-09-30T09:33:03.051Z,12.87
2018-09-30T09:35:31.143Z,15.93
2018-09-30T09:37:59.136Z,28.00
2018-09-30T09:40:27.159Z,14.27
2018-09-30T09:42:55.211Z,12.47
2018-09-30T09:45:29.706Z,13.80
2018-09-30T09:47:57.724Z,14.03
2018-09-30T09:50:25.726Z,16.10
2018-09-30T09:52:53.735Z,18.83
2018-09-30T09:55:21.746Z,16.80
2018-09-30T09:57:49.779Z,19.63
2018-09-30T10:00:23.123Z,23.60
2018-09-30T10:02:51.148Z,20.73
2018-09-30T10:05:19.147Z,17.33
2018-09-30T10:07:47.188Z,17.40
2018-09-30T10:10:15.178Z,13.80
2018-09-30T10:12:43.195Z,17.73
2018-09-30T10:15:11.179Z,17.87
2018-09-30T10:17:39.186Z,16.03
2018-09-30T10:20:07.219Z,16.20
2018-09-30T10:22:35.435Z,18.63
2018-09-30T10:25:03.495Z,17.73
2018-09-30T10:27:31.574Z,14.37
2018-09-30T10:29:59.585Z,18.33
2018-09-30T10:32:27.600Z,12.43
2018-09-30T10:34:55.657Z,13.93
2018-09-30T10:37:23.656Z,15.30
2018-09-30T10:39:51.766Z,13.97
2018-09-30T10:42:19.783Z,24.83
2018-09-30T10:44:47.808Z,14.07
2018-09-30T10:47:16.161Z,15.00
2018-09-30T10:49:44.189Z,13.23
2018-09-30T10:52:12.187Z,13.13
2018-09-30T10:54:40.499Z,11.20
2018-09-30T10:57:08.876Z,12.23
2018-09-30T10:59:37.188Z,12.40
2018-09-30T11:02:05.326Z,12.57
2018-09-30T11:04:33.326Z,12.13
2018-09-30T11:07:01.893Z,17.47
2018-09-30T11:09:30.007Z,12.40
2018-09-30T11:11:58.032Z,19.13
2018-09-30T11:14:26.033Z,14.87
2018-09-30T11:16:54.099Z,17.30
2018-09-30T11:19:22.179Z,19.00
2018-09-30T11:21:50.367Z,13.43
2018-09-30T11:24:18.424Z,18.20
2018-09-30T11:26:46.440Z,15.10
2018-09-30T11:29:14.452Z,15.70
2018-09-30T11:31:42.469Z,11.60
2018-09-30T11:34:10.495Z,12.23
2018-09-30T11:36:38.853Z,17.30
2018-09-30T11:39:07.897Z,10.87
2018-09-30T11:41:35.914Z,17.53
2018-09-30T11:44:04.423Z,18.30
2018-09-30T11:46:32.628Z,14.17
2018-09-30T11:49:00.646Z,12.10
2018-09-30T11:51:28.671Z,14.80
2018-09-30T11:53:57.029Z,11.63
2018-09-30T11:56:25.287Z,14.80
2018-09-30T11:58:53.300Z,10.73
2018-09-30T12:01:21.351Z,14.97
2018-09-30T12:03:49.323Z,11.40
2018-09-30T12:06:17.667Z,10.63
2018-09-30T12:08:45.675Z,9.80
2018-09-30T12:11:13.691Z,15.47
2018-09-30T12:13:41.691Z,19.23
2018-09-30T12:16:09.719Z,11.60
2018-09-30T12:18:37.757Z,13.13
2018-09-30T12:21:05.765Z,13.67
2018-09-30T12:23:33.771Z,17.37
2018-09-30T12:26:01.805Z,13.50
2018-09-30T12:28:29.808Z,12.23
2018-09-30T12:30:58.609Z,15.83
2018-09-30T12:33:26.607Z,11.60
2018-09-30T12:35:54.636Z,16.43
2018-09-30T12:38:22.656Z,14.70
2018-09-30T12:40:50.661Z,15.17
2018-09-30T12:43:18.663Z,8.97
2018-09-30T12:45:46.710Z,11.00
2018-09-30T12:48:14.807Z,10.60
2018-09-30T12:50:42.814Z,11.50
2018-09-30T12:53:10.807Z,12.20
2018-09-30T12:55:38.926Z,12.70
2018-09-30T12:58:07.014Z,13.23
2018-09-30T13:00:34.982Z,12.53
2018-09-30T13:03:03.056Z,11.83
2018-09-30T13:05:31.099Z,15.47
2018-09-30T13:07:59.112Z,14.43
2018-09-30T13:10:27.163Z,12.33
2018-09-30T13:12:55.465Z,11.90
2018-09-30T13:15:23.472Z,11.17
2018-09-30T13:17:51.469Z,9.70
2018-09-30T13:20:19.651Z,11.80
2018-09-30T13:22:47.657Z,15.00
2018-09-30T13:25:15.679Z,8.73
2018-09-30T13:27:43.704Z,9.13
2018-09-30T13:30:11.694Z,9.60
2018-09-30T13:32:39.727Z,7.00
2018-09-30T13:35:08.379Z,7.60
2018-09-30T13:37:36.438Z,6.93
2018-09-30T13:40:04.484Z,10.90
2018-09-30T13:42:32.507Z,9.30
2018-09-30T13:45:00.604Z,6.47
2018-09-30T13:47:28.828Z,10.77
2018-09-30T13:49:56.839Z,10.00
2018-09-30T13:52:24.853Z,7.53
2018-09-30T13:54:52.918Z,7.60
2018-09-30T13:57:21.043Z,8.87
2018-09-30T13:59:49.079Z,6.67
2018-09-30T14:02:17.161Z,8.10
2018-09-30T14:04:45.170Z,11.63
2018-09-30T14:07:13.218Z,11.80
2018-09-30T14:09:41.260Z,9.47
2018-09-30T14:12:09.314Z,12.90
2018-09-30T14:14:37.326Z,10.40
2018-09-30T14:17:05.339Z,10.13
2018-09-30T14:19:33.427Z,9.93
2018-09-30T14:22:01.422Z,8.37
2018-09-30T14:24:29.441Z,11.00
2018-09-30T14:26:57.513Z,9.00
2018-09-30T14:29:25.507Z,9.57
2018-09-30T14:31:53.583Z,10.07
2018-09-30T14:34:21.694Z,12.90
2018-09-30T14:36:49.815Z,14.60
2018-09-30T14:39:17.839Z,13.80
2018-09-30T14:41:46.036Z,10.53
2018-09-30T14:44:14.056Z,17.50
2018-09-30T14:46:42.144Z,10.40
2018-09-30T14:49:10.158Z,13.17
2018-09-30T14:51:38.194Z,13.53
2018-09-30T14:54:06.405Z,12.10
2018-09-30T14:56:34.294Z,12.27
2018-09-30T14:59:02.334Z,8.80
2018-09-30T15:01:30.336Z,18.67
2018-09-30T15:03:58.372Z,19.53
2018-09-30T15:06:26.442Z,10.20
2018-09-30T15:08:54.472Z,8.30
2018-09-30T15:11:22.469Z,12.63
2018-09-30T15:13:50.493Z,10.97
2018-09-30T15:16:18.628Z,9.63
2018-09-30T15:18:46.654Z,10.20
2018-09-30T15:21:14.662Z,9.70
2018-09-30T15:23:42.674Z,10.80
2018-09-30T15:26:10.693Z,15.23
2018-09-30T15:28:38.702Z,10.50
2018-09-30T15:31:06.735Z,18.67
2018-09-30T15:33:34.739Z,10.27
2018-09-30T15:36:02.844Z,16.07
2018-09-30T15:38:30.912Z,11.80
2018-09-30T15:40:58.932Z,12.97
2018-09-30T15:43:26.933Z,9.70
2018-09-30T15:45:54.955Z,10.93
2018-09-30T15:48:23.004Z,7.17
2018-09-30T15:50:51.034Z,14.13
2018-09-30T15:53:19.037Z,9.17
2018-09-30T15:55:47.083Z,10.10
2018-09-30T15:58:15.089Z,9.10
2018-09-30T16:00:43.103Z,8.40
2018-09-30T16:03:11.124Z,9.83
2018-09-30T16:05:39.227Z,16.83
2018-09-30T16:08:07.234Z,9.50
2018-09-30T16:10:35.283Z,6.70
2018-09-30T16:13:03.285Z,9.67
2018-09-30T16:15:31.275Z,11.10
2018-09-30T16:17:59.331Z,9.07
2018-09-30T16:20:27.386Z,7.57
2018-09-30T16:22:55.382Z,7.63
2018-09-30T16:25:23.458Z,9.50
2018-09-30T16:27:51.476Z,7.43
2018-09-30T16:30:19.523Z,6.63
2018-09-30T16:32:47.528Z,7.13
2018-09-30T16:35:15.602Z,10.27
2018-09-30T16:37:43.536Z,9.00
2018-09-30T16:40:11.653Z,8.33
2018-09-30T16:42:39.647Z,12.30
2018-09-30T16:45:07.655Z,8.30
2018-09-30T16:47:35.747Z,12.43
2018-09-30T16:50:03.835Z,14.20
2018-09-30T16:52:31.850Z,11.17
2018-09-30T16:54:59.867Z,10.73
2018-09-30T16:57:28.013Z,7.80
2018-09-30T16:59:56.020Z,8.37
2018-09-30T17:02:24.009Z,8.50
2018-09-30T17:04:52.131Z,12.27
2018-09-30T17:07:20.265Z,18.03
2018-09-30T17:09:48.405Z,11.03
2018-09-30T17:12:16.552Z,12.30
2018-09-30T17:14:44.568Z,8.83
2018-09-30T17:17:12.647Z,10.97
2018-09-30T17:19:40.679Z,15.10
2018-09-30T17:22:08.735Z,12.80
2018-09-30T17:24:36.751Z,15.07
2018-09-30T17:27:04.832Z,12.23
2018-09-30T17:29:32.894Z,15.50
2018-09-30T17:32:00.935Z,12.07
2018-09-30T17:34:28.996Z,18.73
2018-09-30T17:36:57.935Z,12.67
2018-09-30T17:39:25.963Z,14.50
2018-09-30T17:41:53.971Z,19.83
2018-09-30T17:44:21.947Z,11.20
2018-09-30T17:46:50.409Z,12.30
2018-09-30T17:49:18.382Z,15.57
2018-09-30T17:51:46.412Z,12.37
2018-09-30T17:54:14.411Z,13.43
2018-09-30T17:56:42.454Z,13.10
2018-09-30T17:59:10.482Z,15.40
2018-09-30T18:01:38.522Z,14.20
2018-09-30T18:04:06.576Z,19.53
2018-09-30T18:06:34.743Z,11.23
2018-09-30T18:09:02.945Z,16.07
2018-09-30T18:11:31.146Z,13.07
2018-09-30T18:13:59.167Z,21.67
2018-09-30T18:16:27.225Z,14.20
2018-09-30T18:18:55.346Z,13.20
2018-09-30T18:21:23.533Z,17.33
2018-09-30T18:23:51.644Z,15.30
2018-09-30T18:26:19.648Z,22.70
2018-09-30T18:28:47.641Z,19.03
2018-09-30T18:31:15.651Z,16.17
2018-09-30T18:33:43.705Z,19.83
2018-09-30T18:36:11.813Z,23.53
2018-09-30T18:38:39.836Z,20.23
2018-09-30T18:41:07.855Z,26.23
2018-09-30T18:43:35.881Z,20.57
2018-09-30T18:46:03.985Z,19.10
2018-09-30T18:48:32.035Z,24.87
2018-09-30T18:51:00.072Z,16.40
2018-09-30T18:53:28.094Z,18.73
2018-09-30T18:55:56.149Z,17.83
2018-09-30T18:58:24.140Z,16.33
2018-09-30T19:00:52.172Z,18.20
2018-09-30T19:03:20.285Z,17.30
2018-09-30T19:05:48.313Z,16.73
2018-09-30T19:08:17.024Z,17.50
2018-09-30T19:10:45.017Z,18.10
2018-09-30T19:13:13.079Z,15.00
2018-09-30T19:15:41.464Z,21.07
2018-09-30T19:18:09.443Z,22.60
2018-09-30T19:20:37.470Z,17.33
2018-09-30T19:23:05.582Z,18.60
2018-09-30T19:25:33.603Z,22.50
2018-09-30T19:28:01.720Z,17.23
2018-09-30T19:30:29.832Z,18.00
2018-09-30T19:32:57.956Z,15.93
2018-09-30T19:35:25.958Z,15.30
2018-09-30T19:37:53.932Z,22.93
2018-09-30T19:40:21.887Z,22.43
2018-09-30T19:42:49.898Z,19.13
2018-09-30T19:45:17.825Z,19.40
2018-09-30T19:47:45.776Z,23.63
2018-09-30T19:50:13.730Z,16.57
2018-09-30T19:52:41.730Z,24.23
2018-09-30T19:55:09.665Z,18.93
2018-09-30T19:57:37.619Z,22.20
2018-09-30T20:00:05.568Z,19.33
2018-09-30T20:02:33.690Z,18.93
2018-09-30T20:05:01.630Z,26.17
2018-09-30T20:07:29.573Z,19.47
2018-09-30T20:09:57.554Z,19.60
2018-09-30T20:12:25.638Z,18.17
2018-09-30T20:14:53.621Z,20.80
2018-09-30T20:17:21.610Z,26.53
2018-09-30T20:19:49.594Z,24.33
2018-09-30T20:22:17.591Z,20.17
2018-09-30T20:24:45.600Z,23.83
2018-09-30T20:27:13.609Z,26.10
2018-09-30T20:29:41.630Z,24.83
2018-09-30T20:32:09.598Z,24.47
2018-09-30T20:34:37.591Z,21.30
2018-09-30T20:37:15.029Z,31.87
2018-09-30T20:39:43.004Z,23.30
2018-09-30T20:42:10.983Z,24.63
2018-09-30T20:44:38.986Z,26.87
2018-09-30T20:47:06.971Z,25.90
2018-09-30T20:49:35.018Z,23.43
2018-09-30T20:52:02.998Z,27.23
2018-09-30T20:54:30.994Z,28.30
2018-09-30T20:56:59.010Z,27.20
2018-09-30T20:59:27.015Z,26.63
2018-09-30T21:01:55.004Z,30.60
2018-09-30T21:04:22.995Z,26.40
2018-09-30T21:06:50.983Z,23.40
2018-09-30T21:09:20.139Z,25.93
2018-09-30T21:11:48.121Z,24.63
2018-09-30T21:14:16.141Z,24.10
2018-09-30T21:16:44.119Z,28.80
2018-09-30T21:19:12.114Z,29.43
2018-09-30T21:21:40.112Z,25.20
2018-09-30T21:24:08.107Z,25.90
2018-09-30T21:26:36.078Z,20.73
2018-09-30T21:29:04.066Z,26.63
2018-09-30T21:31:32.044Z,21.53
2018-09-30T21:34:00.055Z,27.30
2018-09-30T21:36:28.042Z,27.77
2018-09-30T21:38:56.045Z,23.90
2018-09-30T21:41:24.047Z,30.30
2018-09-30T21:43:52.043Z,25.00
2018-09-30T21:46:20.045Z,26.07
2018-09-30T21:48:48.090Z,30.17
2018-09-30T21:51:16.043Z,24.23
2018-09-30T21:53:44.051Z,27.80
2018-09-30T21:56:12.045Z,31.90
2018-09-30T21:58:40.040Z,28.00
2018-09-30T22:01:08.102Z,35.97
2018-09-30T22:03:36.047Z,32.80
2018-09-30T22:06:04.038Z,29.80
2018-09-30T22:08:32.033Z,32.60
2018-09-30T22:11:00.098Z,29.03
2018-09-30T22:13:28.081Z,34.40
2018-09-30T22:15:56.079Z,32.00
2018-09-30T22:18:24.066Z,30.73
2018-09-30T22:20:52.073Z,33.03
2018-09-30T22:23:20.072Z,36.70
2018-09-30T22:25:48.071Z,32.13
2018-09-30T22:28:16.046Z,33.00
2018-09-30T22:30:44.038Z,25.50
2018-09-30T22:33:12.033Z,37.27
2018-09-30T22:35:40.028Z,28.43
2018-09-30T22:38:08.030Z,30.93
2018-09-30T22:40:36.027Z,29.67
2018-09-30T22:43:04.031Z,27.63
2018-09-30T22:45:32.027Z,30.63
2018-09-30T22:48:00.031Z,30.67
2018-09-30T22:50:28.019Z,27.73
2018-09-30T22:52:56.011Z,35.20
2018-09-30T22:55:24.007Z,28.33
2018-09-30T22:57:51.998Z,31.00
2018-09-30T23:00:19.998Z,37.33
2018-09-30T23:02:47.996Z,38.37
2018-09-30T23:05:15.990Z,31.30
2018-09-30T23:07:43.983Z,37.67
2018-09-30T23:10:12.765Z,31.43
2018-09-30T23:12:41.042Z,31.63
2018-09-30T23:15:09.051Z,33.03
2018-09-30T23:17:37.043Z,28.87
2018-09-30T23:20:05.030Z,25.17
2018-09-30T23:22:33.030Z,32.23
2018-09-30T23:25:01.031Z,31.53
2018-09-30T23:27:29.035Z,25.10
2018-09-30T23:29:57.031Z,24.93
2018-09-30T23:32:25.050Z,25.60
2018-09-30T23:34:53.046Z,27.93
2018-09-30T23:37:21.043Z,27.83
2018-09-30T23:39:49.038Z,27.07
2018-09-30T23:42:17.058Z,31.10
2018-09-30T23:44:45.064Z,27.50
2018-09-30T23:47:13.058Z,28.33
2018-09-30T23:49:41.051Z,22.00
2018-09-30T23:52:09.060Z,22.83
2018-09-30T23:54:37.047Z,21.67
2018-09-30T23:57:05.200Z,23.00
2018-09-30T23:59:33.192Z,23.53
